createdAt,value
2019-01-13T00:07:50.324Z,6.97
2019-01-13T00:17:55.495Z,7.27
2019-01-13T00:28:00.638Z,7.80
2019-01-13T00:38:05.779Z,7.90
2019-01-13T00:48:10.919Z,6.60
2019-01-13T00:58:16.066Z,6.80
2019-01-13T01:08:21.223Z,7.30
2019-01-13T01:18:26.724Z,5.80
2019-01-13T01:28:31.865Z,5.90
2019-01-13T01:38:37.024Z,6.33
2019-01-13T01:48:42.157Z,6.33
2019-01-13T01:58:47.365Z,5.93
2019-01-13T04:06:41.118Z,4.70
2019-01-13T04:16:46.276Z,4.80
2019-01-13T04:26:51.405Z,4.87
2019-01-13T04:36:56.547Z,4.30
2019-01-13T04:47:01.681Z,4.80
2019-01-13T04:57:06.815Z,4.63
2019-01-13T05:07:11.970Z,4.37
2019-01-13T05:17:17.161Z,4.80
2019-01-13T05:27:22.288Z,4.33
2019-01-13T05:37:27.429Z,5.37
2019-01-13T05:47:32.574Z,4.60
2019-01-13T05:57:37.685Z,5.03
2019-01-13T06:07:42.842Z,4.17
2019-01-13T06:17:49.560Z,4.80
2019-01-13T06:27:54.696Z,4.60
2019-01-13T06:37:59.834Z,4.37
2019-01-13T06:48:05.020Z,3.87
2019-01-13T06:58:10.149Z,4.27
2019-01-13T07:08:15.285Z,3.90
2019-01-13T07:18:20.434Z,3.87
2019-01-13T07:28:25.562Z,4.20
2019-01-13T07:38:30.818Z,3.90
2019-01-13T07:48:36.920Z,4.63
2019-01-13T07:58:42.045Z,3.80
2019-01-13T08:08:47.175Z,3.83
2019-01-13T08:18:52.700Z,3.13
2019-01-13T08:28:57.832Z,4.00
2019-01-13T08:39:03.895Z,3.67
2019-01-13T08:49:09.077Z,3.67
2019-01-13T08:59:14.212Z,4.63
2019-01-13T09:09:19.715Z,3.43
2019-01-13T09:19:24.914Z,3.43
2019-01-13T09:29:30.046Z,4.00
2019-01-13T09:39:35.176Z,3.60
2019-01-13T09:49:40.640Z,4.00
2019-01-13T09:59:45.951Z,3.13
2019-01-13T10:09:51.292Z,2.77
2019-01-13T10:19:56.647Z,3.50
2019-01-13T10:30:06.988Z,3.37
2019-01-13T10:40:15.273Z,3.20
2019-01-13T10:50:26.181Z,3.00
2019-01-13T11:00:34.232Z,2.80
2019-01-13T11:10:40.164Z,3.07
2019-01-13T11:20:45.416Z,3.50
2019-01-13T11:30:50.528Z,3.53
2019-01-13T11:40:55.663Z,2.80
2019-01-13T11:51:00.789Z,2.73
2019-01-13T12:01:06.951Z,3.27
2019-01-13T12:11:12.106Z,3.17
2019-01-13T12:21:17.265Z,2.60
2019-01-13T12:31:22.473Z,3.27
2019-01-13T12:41:27.607Z,3.13
2019-01-13T12:51:32.818Z,3.03
2019-01-13T13:01:38.024Z,3.10
2019-01-13T13:11:43.595Z,2.83
2019-01-13T13:21:48.845Z,2.90
2019-01-13T13:31:53.996Z,3.10
2019-01-13T13:41:59.159Z,2.80
2019-01-13T13:52:04.341Z,2.83
2019-01-13T14:02:09.593Z,3.00
2019-01-13T14:12:15.267Z,3.23
2019-01-13T14:22:20.458Z,2.50
2019-01-13T14:32:25.693Z,2.83
2019-01-13T14:42:31.016Z,2.70
2019-01-13T14:52:37.115Z,2.50
2019-01-13T15:02:42.266Z,2.50
2019-01-13T15:12:47.528Z,3.53
2019-01-13T15:22:53.045Z,2.97
2019-01-13T15:32:58.638Z,2.47
2019-01-13T15:43:03.918Z,3.10
2019-01-13T15:53:09.048Z,2.90
2019-01-13T16:03:15.798Z,3.27
2019-01-13T16:13:21.036Z,2.80
2019-01-13T16:23:26.355Z,3.13
2019-01-13T16:33:31.478Z,3.93
2019-01-13T16:43:36.736Z,3.73
2019-01-13T16:53:42.277Z,3.20
2019-01-13T17:03:47.413Z,3.70
2019-01-13T17:13:52.599Z,3.00
2019-01-13T17:23:57.829Z,3.07
2019-01-13T17:34:03.283Z,3.03
2019-01-13T17:44:08.664Z,3.93
2019-01-13T17:54:13.906Z,9.57
2019-01-13T18:04:19.075Z,11.20
2019-01-13T18:14:24.637Z,9.13
2019-01-13T18:24:30.141Z,9.93
2019-01-13T18:34:35.881Z,10.37
2019-01-13T18:44:42.720Z,9.00
2019-01-13T18:54:49.924Z,10.07
2019-01-13T19:04:57.376Z,9.33
2019-01-13T19:15:03.133Z,9.00
2019-01-13T19:25:21.020Z,8.80
2019-01-13T19:35:26.194Z,10.30
2019-01-13T19:45:31.457Z,8.27
2019-01-13T19:55:36.683Z,8.80
2019-01-13T20:05:41.894Z,8.57
2019-01-13T20:15:47.148Z,8.67
2019-01-13T20:25:52.405Z,8.10
2019-01-13T20:35:57.559Z,9.90
2019-01-13T20:46:03.887Z,7.93
2019-01-13T20:56:10.027Z,8.90
2019-01-13T21:06:15.599Z,8.13
2019-01-13T21:16:21.564Z,8.93
2019-01-13T21:26:26.756Z,8.07
2019-01-13T21:36:32.062Z,9.97
2019-01-13T21:46:37.351Z,10.80
2019-01-13T21:56:43.579Z,9.50
2019-01-13T22:06:48.760Z,9.40
2019-01-13T22:16:53.986Z,9.00
2019-01-13T22:26:59.356Z,8.57
2019-01-13T22:37:04.504Z,8.50
2019-01-13T22:47:09.669Z,8.40
2019-01-13T22:57:15.167Z,8.37
2019-01-13T23:07:20.357Z,8.20
2019-01-13T23:17:26.113Z,8.10
2019-01-13T23:27:31.284Z,7.97
2019-01-13T23:37:37.286Z,7.57
2019-01-13T23:47:43.165Z,7.80
2019-01-13T23:57:48.330Z,7.93
